createdAt,value
2022-10-13T00:01:09.278Z,10.77
2022-10-13T00:03:40.016Z,10.20
2022-10-13T00:06:09.474Z,11.38
2022-10-13T00:08:37.454Z,7.03
2022-10-13T00:11:15.531Z,7.95
2022-10-13T00:13:43.419Z,6.55
2022-10-13T00:16:12.278Z,9.50
2022-10-13T00:18:39.198Z,9.07
2022-10-13T00:21:11.582Z,8.10
2022-10-13T00:23:39.141Z,6.82
2022-10-13T00:26:08.782Z,7.68
2022-10-13T00:28:35.921Z,7.45
2022-10-13T00:31:02.906Z,7.60
2022-10-13T00:33:29.854Z,5.60
2022-10-13T00:35:56.722Z,5.55
2022-10-13T00:38:23.961Z,8.45
2022-10-13T00:40:53.849Z,10.30
2022-10-13T00:43:26.639Z,14.40
2022-10-13T00:45:54.306Z,10.50
2022-10-13T00:48:27.622Z,9.13
2022-10-13T00:50:56.426Z,9.85
2022-10-13T00:53:27.524Z,9.45
2022-10-13T00:55:55.348Z,8.20
2022-10-13T00:58:25.546Z,9.10
2022-10-13T01:00:53.604Z,7.95
2022-10-13T01:03:21.914Z,7.95
2022-10-13T01:05:51.590Z,14.05
2022-10-13T01:08:19.952Z,9.65
2022-10-13T01:11:22.887Z,11.05
2022-10-13T01:14:20.694Z,8.63
2022-10-13T01:19:26.305Z,9.52
2022-10-13T01:22:18.647Z,13.05
2022-10-13T01:25:12.272Z,9.50
2022-10-13T01:27:48.356Z,8.90
2022-10-13T01:30:20.073Z,9.20
2022-10-13T01:33:04.671Z,7.57
2022-10-13T01:35:42.573Z,7.60
2022-10-13T01:38:20.014Z,10.27
2022-10-13T01:41:01.043Z,12.60
2022-10-13T01:43:37.593Z,6.32
2022-10-13T01:46:23.228Z,7.53
2022-10-13T01:48:53.770Z,11.65
2022-10-13T01:51:23.928Z,8.77
2022-10-13T01:53:53.173Z,8.50
2022-10-13T01:56:20.479Z,9.82
2022-10-13T01:58:50.000Z,10.55
2022-10-13T02:01:19.763Z,8.05
2022-10-13T02:04:08.273Z,7.40
2022-10-13T02:07:24.017Z,8.40
2022-10-13T02:10:00.268Z,8.35
2022-10-13T02:12:49.653Z,7.95
2022-10-13T02:15:21.525Z,8.65
2022-10-13T02:17:50.637Z,9.52
2022-10-13T02:20:20.158Z,9.77
2022-10-13T02:22:51.331Z,9.57
2022-10-13T02:25:18.318Z,7.45
2022-10-13T02:27:45.213Z,8.15
2022-10-13T02:30:22.397Z,10.68
2022-10-13T02:32:49.334Z,7.40
2022-10-13T02:35:16.646Z,9.23
2022-10-13T02:37:43.657Z,7.25
2022-10-13T02:40:11.373Z,10.30
2022-10-13T02:42:38.589Z,9.55
2022-10-13T02:45:06.029Z,9.98
2022-10-13T02:47:32.962Z,10.43
2022-10-13T02:50:02.660Z,9.88
2022-10-13T02:52:30.277Z,7.55
2022-10-13T02:54:57.267Z,13.88
2022-10-13T02:57:24.467Z,9.60
2022-10-13T02:59:52.733Z,9.00
2022-10-13T03:02:20.599Z,6.60
2022-10-13T03:04:49.249Z,9.75
2022-10-13T03:07:16.114Z,10.30
2022-10-13T03:09:43.108Z,9.48
2022-10-13T03:12:10.058Z,10.57
2022-10-13T03:14:37.610Z,12.57
2022-10-13T03:17:04.872Z,9.13
2022-10-13T03:19:32.069Z,7.82
2022-10-13T03:21:58.971Z,9.57
2022-10-13T03:24:25.831Z,9.63
2022-10-13T03:26:52.883Z,9.73
2022-10-13T03:29:20.475Z,6.82
2022-10-13T03:31:47.321Z,8.18
2022-10-13T03:34:16.676Z,7.75
2022-10-13T03:36:43.660Z,8.85
2022-10-13T03:39:10.610Z,6.60
2022-10-13T03:41:37.570Z,11.23
2022-10-13T03:44:04.895Z,9.20
2022-10-13T03:46:31.847Z,6.13
2022-10-13T03:48:59.198Z,9.82
2022-10-13T03:51:26.123Z,10.57
2022-10-13T03:53:53.895Z,8.90
2022-10-13T03:56:24.085Z,10.30
2022-10-13T03:58:54.652Z,12.10
2022-10-13T04:01:23.275Z,9.35
2022-10-13T04:03:52.333Z,11.73
2022-10-13T04:06:19.649Z,12.80
2022-10-13T04:08:46.770Z,17.00
2022-10-13T04:11:15.963Z,15.80
2022-10-13T04:13:44.572Z,14.30
2022-10-13T04:16:16.331Z,12.02
2022-10-13T04:18:45.016Z,10.82
2022-10-13T04:21:15.215Z,11.95
2022-10-13T04:23:42.387Z,11.45
2022-10-13T04:26:17.469Z,10.48
2022-10-13T04:28:45.551Z,6.85
2022-10-13T04:31:12.634Z,9.38
2022-10-13T04:33:39.696Z,7.10
2022-10-13T04:36:08.853Z,4.45
2022-10-13T04:38:35.876Z,4.90
2022-10-13T04:41:04.253Z,5.93
2022-10-13T04:43:32.219Z,5.78
2022-10-13T04:46:03.337Z,6.32
2022-10-13T04:48:30.555Z,7.63
2022-10-13T04:51:02.380Z,9.57
2022-10-13T04:53:30.105Z,12.02
2022-10-13T04:56:00.473Z,6.28
2022-10-13T04:58:27.385Z,12.98
2022-10-13T05:00:55.649Z,8.88
2022-10-13T05:03:23.527Z,9.00
2022-10-13T05:05:50.987Z,7.07
2022-10-13T05:08:18.050Z,7.80
2022-10-13T05:10:56.649Z,5.85
2022-10-13T05:13:25.212Z,5.85
2022-10-13T05:15:52.445Z,12.02
2022-10-13T05:18:21.923Z,8.07
2022-10-13T05:20:49.011Z,6.97
2022-10-13T05:23:16.313Z,10.27
2022-10-13T05:25:43.289Z,8.02
2022-10-13T05:28:14.343Z,13.57
2022-10-13T05:30:41.322Z,9.32
2022-10-13T05:33:08.263Z,12.43
2022-10-13T05:35:35.145Z,6.40
2022-10-13T05:38:02.128Z,11.55
2022-10-13T05:40:29.391Z,7.15
2022-10-13T05:43:00.644Z,7.57
2022-10-13T05:45:29.914Z,8.40
2022-10-13T05:47:56.878Z,6.28
2022-10-13T05:50:24.301Z,6.97
2022-10-13T05:52:51.832Z,10.57
2022-10-13T05:55:19.643Z,11.13
2022-10-13T05:57:51.627Z,5.57
2022-10-13T06:00:20.077Z,18.42
2022-10-13T06:02:55.000Z,10.82
2022-10-13T06:05:24.869Z,35.00
2022-10-13T06:07:55.210Z,31.35
2022-10-13T06:10:22.832Z,5.35
2022-10-13T06:12:49.693Z,8.25
2022-10-13T06:15:16.667Z,7.97
2022-10-13T06:17:43.652Z,7.18
2022-10-13T06:20:11.358Z,5.07
2022-10-13T06:22:38.871Z,5.45
2022-10-13T06:25:07.061Z,6.63
2022-10-13T06:27:34.017Z,8.35
2022-10-13T06:30:01.008Z,6.60
2022-10-13T06:32:28.088Z,5.47
2022-10-13T06:34:54.972Z,5.10
2022-10-13T06:37:26.986Z,7.70
2022-10-13T06:39:54.523Z,8.40
2022-10-13T06:42:21.876Z,11.55
2022-10-13T06:45:07.067Z,11.07
2022-10-13T06:47:34.104Z,8.15
2022-10-13T06:50:01.059Z,5.57
2022-10-13T06:52:28.163Z,7.55
2022-10-13T06:54:55.105Z,7.28
2022-10-13T06:57:22.048Z,7.50
2022-10-13T06:59:49.210Z,7.50
2022-10-13T07:02:16.090Z,6.47
2022-10-13T07:04:42.968Z,8.43
2022-10-13T07:07:09.868Z,5.50
2022-10-13T07:09:36.711Z,8.55
2022-10-13T07:12:04.943Z,6.88
2022-10-13T07:14:31.836Z,12.35
2022-10-13T07:16:58.809Z,6.53
2022-10-13T07:19:25.744Z,10.68
2022-10-13T07:21:53.176Z,8.88
2022-10-13T07:24:24.513Z,6.70
2022-10-13T07:26:51.490Z,8.25
2022-10-13T07:29:18.944Z,6.03
2022-10-13T07:31:46.504Z,8.85
2022-10-13T07:34:15.544Z,7.38
2022-10-13T07:36:42.590Z,8.43
2022-10-13T07:39:10.006Z,9.07
2022-10-13T07:41:37.228Z,11.00
2022-10-13T07:44:04.336Z,19.92
2022-10-13T07:46:31.291Z,9.85
2022-10-13T07:48:58.323Z,20.35
2022-10-13T07:51:26.293Z,10.93
2022-10-13T07:53:53.441Z,12.27
2022-10-13T07:56:20.382Z,9.80
2022-10-13T07:58:48.247Z,7.88
2022-10-13T08:01:18.093Z,8.05
2022-10-13T08:03:49.864Z,8.88
2022-10-13T08:06:19.408Z,5.57
2022-10-13T08:08:47.442Z,7.35
2022-10-13T08:11:17.931Z,6.88
2022-10-13T08:13:52.473Z,7.55
2022-10-13T08:16:22.995Z,11.23
2022-10-13T08:18:50.760Z,14.18
2022-10-13T08:24:14.193Z,7.00
2022-10-13T08:26:43.270Z,9.45
2022-10-13T08:29:26.325Z,11.80
2022-10-13T08:31:54.280Z,8.80
2022-10-13T08:34:23.277Z,8.50
2022-10-13T08:36:53.539Z,6.35
2022-10-13T08:39:22.798Z,6.95
2022-10-13T08:41:50.295Z,7.13
2022-10-13T08:45:02.678Z,5.60
2022-10-13T08:47:20.699Z,7.43
2022-10-13T08:49:49.551Z,4.97
2022-10-13T08:52:27.001Z,6.78
2022-10-13T08:54:55.880Z,5.88
2022-10-13T08:57:24.090Z,9.95
2022-10-13T08:59:52.705Z,6.53
2022-10-13T09:02:27.263Z,4.65
2022-10-13T09:04:54.278Z,7.32
2022-10-13T09:07:23.564Z,9.20
2022-10-13T09:09:52.355Z,4.00
2022-10-13T09:12:24.329Z,6.40
2022-10-13T09:15:05.442Z,8.70
2022-10-13T09:17:34.298Z,5.13
2022-10-13T09:20:01.184Z,5.20
2022-10-13T09:22:29.784Z,5.57
2022-10-13T09:25:11.469Z,5.75
2022-10-13T09:28:09.042Z,5.82
2022-10-13T09:30:39.927Z,6.00
2022-10-13T09:33:11.933Z,7.40
2022-10-13T09:35:44.425Z,3.47
2022-10-13T09:38:22.519Z,4.32
2022-10-13T09:41:06.168Z,5.78
2022-10-13T09:43:40.971Z,4.57
2022-10-13T09:47:00.595Z,4.60
2022-10-13T09:49:35.929Z,4.80
2022-10-13T09:52:16.422Z,4.22
2022-10-13T09:54:48.259Z,3.97
2022-10-13T09:57:17.758Z,4.40
2022-10-13T09:59:58.872Z,3.80
2022-10-13T10:02:36.258Z,6.38
2022-10-13T10:05:29.889Z,10.57
2022-10-13T10:08:03.005Z,3.20
2022-10-13T10:10:40.745Z,3.97
2022-10-13T10:13:13.267Z,4.22
2022-10-13T10:15:43.200Z,3.55
2022-10-13T10:18:43.580Z,5.35
2022-10-13T10:21:20.825Z,5.63
2022-10-13T10:24:08.228Z,3.75
2022-10-13T10:26:50.588Z,6.60
2022-10-13T10:29:36.099Z,4.80
2022-10-13T10:32:02.911Z,3.55
2022-10-13T10:35:17.212Z,3.85
2022-10-13T10:38:02.718Z,3.35
2022-10-13T10:40:51.702Z,5.50
2022-10-13T10:43:43.341Z,5.47
2022-10-13T10:46:24.922Z,4.72
2022-10-13T10:48:57.462Z,4.93
2022-10-13T10:51:33.034Z,7.07
2022-10-13T10:54:02.610Z,3.70
2022-10-13T10:56:39.055Z,5.95
2022-10-13T10:59:29.338Z,4.07
2022-10-13T11:02:08.431Z,7.35
2022-10-13T11:04:49.393Z,6.82
2022-10-13T11:07:22.271Z,5.40
2022-10-13T11:09:49.723Z,5.57
2022-10-13T11:12:19.699Z,8.55
2022-10-13T11:15:10.191Z,4.40
2022-10-13T11:17:39.535Z,6.95
2022-10-13T11:20:21.776Z,6.85
2022-10-13T11:22:57.692Z,3.45
2022-10-13T11:25:45.191Z,4.70
2022-10-13T11:28:21.685Z,9.95
2022-10-13T11:30:50.862Z,3.65
2022-10-13T11:33:36.821Z,8.85
2022-10-13T11:36:41.143Z,3.38
2022-10-13T11:42:28.909Z,8.32
2022-10-13T11:45:02.882Z,5.65
2022-10-13T11:48:03.836Z,7.65
2022-10-13T11:50:55.005Z,6.68
2022-10-13T11:53:28.243Z,8.60
2022-10-13T11:55:57.478Z,9.05
2022-10-13T11:58:30.401Z,4.32
2022-10-13T12:01:01.341Z,4.53
2022-10-13T12:03:30.737Z,6.60
2022-10-13T12:06:07.928Z,4.05
2022-10-13T12:08:36.813Z,6.35
2022-10-13T12:11:07.760Z,3.17
2022-10-13T12:13:36.392Z,5.07
2022-10-13T12:16:06.670Z,5.18
2022-10-13T12:18:36.759Z,4.28
2022-10-13T12:21:14.344Z,6.72
2022-10-13T12:23:41.450Z,5.85
2022-10-13T12:26:13.929Z,7.38
2022-10-13T12:28:57.048Z,9.05
2022-10-13T12:31:26.708Z,2.70
2022-10-13T12:33:56.143Z,8.60
2022-10-13T12:36:30.389Z,3.78
2022-10-13T12:39:07.800Z,3.10
2022-10-13T12:41:38.764Z,5.10
2022-10-13T12:44:08.027Z,12.07
2022-10-13T12:46:39.103Z,9.80
2022-10-13T12:49:13.555Z,5.05
2022-10-13T12:51:42.023Z,3.72
2022-10-13T12:54:19.153Z,5.00
2022-10-13T12:56:46.977Z,3.03
2022-10-13T12:59:19.031Z,4.03
2022-10-13T13:02:00.738Z,2.97
2022-10-13T13:04:37.539Z,4.85
2022-10-13T13:07:06.956Z,3.90
2022-10-13T13:09:35.762Z,2.97
2022-10-13T13:12:04.283Z,3.03
2022-10-13T13:14:53.257Z,4.05
2022-10-13T13:20:32.395Z,6.25
2022-10-13T13:22:59.878Z,2.88
2022-10-13T13:25:26.894Z,3.90
2022-10-13T13:27:53.820Z,9.10
2022-10-13T13:30:23.471Z,4.40
2022-10-13T13:32:51.106Z,6.18
2022-10-13T13:35:18.122Z,3.25
2022-10-13T13:37:50.677Z,3.03
2022-10-13T13:40:23.454Z,5.00
2022-10-13T13:42:50.771Z,3.97
2022-10-13T13:45:20.990Z,8.90
2022-10-13T13:47:50.213Z,5.35
2022-10-13T13:50:26.597Z,2.05
2022-10-13T13:52:57.362Z,5.13
2022-10-13T13:55:24.825Z,3.17
2022-10-13T13:57:51.752Z,2.90
2022-10-13T14:00:19.288Z,4.60
2022-10-13T14:02:53.285Z,6.03
2022-10-13T14:05:20.406Z,4.32
2022-10-13T14:07:47.400Z,3.63
2022-10-13T14:10:14.313Z,5.57
2022-10-13T14:12:41.288Z,4.93
2022-10-13T14:15:08.868Z,12.30
2022-10-13T14:17:35.784Z,18.15
2022-10-13T14:20:02.796Z,12.43
2022-10-13T14:22:30.817Z,6.18
2022-10-13T14:24:57.839Z,5.95
2022-10-13T14:27:24.796Z,13.35
2022-10-13T14:29:52.747Z,6.85
2022-10-13T14:32:19.969Z,3.95
2022-10-13T14:34:47.018Z,5.07
2022-10-13T14:37:14.172Z,11.35
2022-10-13T14:39:41.132Z,8.82
2022-10-13T14:42:08.150Z,7.22
2022-10-13T14:44:35.025Z,6.30
2022-10-13T14:47:01.959Z,5.25
2022-10-13T14:49:29.003Z,6.55
2022-10-13T14:51:55.958Z,7.03
2022-10-13T14:54:23.052Z,12.40
2022-10-13T14:56:51.671Z,9.68
2022-10-13T14:59:18.739Z,4.82
2022-10-13T15:01:47.275Z,7.80
2022-10-13T15:04:14.380Z,10.02
2022-10-13T15:06:41.965Z,9.70
2022-10-13T15:11:41.524Z,4.82
2022-10-13T15:14:09.949Z,8.77
2022-10-13T15:16:38.049Z,7.45
2022-10-13T15:19:05.424Z,5.78
2022-10-13T15:21:32.486Z,5.35
2022-10-13T15:24:01.496Z,9.02
2022-10-13T15:26:28.834Z,6.70
2022-10-13T15:28:55.928Z,11.27
2022-10-13T15:31:24.005Z,15.38
2022-10-13T15:33:52.997Z,4.65
2022-10-13T15:36:22.897Z,6.68
2022-10-13T15:38:51.141Z,10.07
2022-10-13T15:41:18.682Z,12.73
2022-10-13T15:43:45.874Z,6.97
2022-10-13T15:46:21.508Z,6.97
2022-10-13T15:48:49.869Z,7.87
2022-10-13T15:51:19.728Z,12.20
2022-10-13T15:53:48.272Z,11.82
2022-10-13T15:56:15.853Z,9.00
2022-10-13T15:58:42.973Z,6.50
2022-10-13T16:01:11.287Z,7.82
2022-10-13T16:03:38.471Z,5.38
2022-10-13T16:06:08.257Z,8.98
2022-10-13T16:08:39.825Z,6.93
2022-10-13T16:11:18.151Z,7.85
2022-10-13T16:13:49.812Z,8.05
2022-10-13T16:16:17.840Z,8.18
2022-10-13T16:18:45.935Z,11.52
2022-10-13T16:21:22.227Z,14.43
2022-10-13T16:23:49.552Z,6.75
2022-10-13T16:26:17.692Z,5.25
2022-10-13T16:28:46.123Z,7.18
2022-10-13T16:31:16.134Z,7.80
2022-10-13T16:33:44.857Z,11.02
2022-10-13T16:36:14.869Z,8.02
2022-10-13T16:38:42.865Z,9.40
2022-10-13T16:41:14.776Z,15.57
2022-10-13T16:43:42.906Z,5.38
2022-10-13T16:46:13.444Z,6.22
2022-10-13T16:48:41.480Z,15.15
2022-10-13T16:51:12.175Z,10.82
2022-10-13T16:53:39.298Z,7.38
2022-10-13T16:56:07.587Z,7.75
2022-10-13T16:58:35.231Z,8.68
2022-10-13T17:01:08.911Z,10.43
2022-10-13T17:03:36.724Z,6.65
2022-10-13T17:06:04.477Z,10.82
2022-10-13T17:08:31.848Z,10.95
2022-10-13T17:11:01.405Z,11.70
2022-10-13T17:13:28.723Z,5.75
2022-10-13T17:15:57.182Z,9.02
2022-10-13T17:18:25.357Z,8.23
2022-10-13T17:20:53.578Z,6.85
2022-10-13T17:23:21.186Z,10.10
2022-10-13T17:25:48.803Z,15.90
2022-10-13T17:28:16.378Z,12.95
2022-10-13T17:30:43.914Z,9.60
2022-10-13T17:33:14.861Z,7.68
2022-10-13T17:35:44.372Z,6.80
2022-10-13T17:38:11.225Z,16.27
2022-10-13T17:40:38.197Z,9.13
2022-10-13T17:43:05.080Z,5.95
2022-10-13T17:45:32.076Z,9.68
2022-10-13T17:47:59.027Z,17.45
2022-10-13T17:50:29.782Z,13.80
2022-10-13T17:52:56.714Z,12.70
2022-10-13T17:55:23.767Z,8.13
2022-10-13T17:57:50.693Z,7.10
2022-10-13T18:00:17.800Z,7.00
2022-10-13T18:02:45.683Z,10.95
2022-10-13T18:05:13.309Z,11.73
2022-10-13T18:07:40.256Z,13.30
2022-10-13T18:10:08.212Z,10.25
2022-10-13T18:12:35.084Z,17.38
2022-10-13T18:15:02.115Z,13.27
2022-10-13T18:17:31.338Z,14.60
2022-10-13T18:19:58.763Z,19.10
2022-10-13T18:22:25.656Z,10.02
2022-10-13T18:24:57.135Z,10.48
2022-10-13T18:27:24.317Z,9.27
2022-10-13T18:29:51.179Z,10.68
2022-10-13T18:32:21.850Z,8.25
2022-10-13T18:34:48.753Z,11.18
2022-10-13T18:37:15.756Z,9.32
2022-10-13T18:39:44.514Z,7.28
2022-10-13T18:42:11.435Z,9.23
2022-10-13T18:44:38.319Z,10.13
2022-10-13T18:47:06.586Z,8.23
2022-10-13T18:49:33.592Z,11.77
2022-10-13T18:52:01.756Z,10.70
2022-10-13T18:54:30.293Z,9.57
2022-10-13T18:56:57.508Z,8.75
2022-10-13T18:59:24.637Z,8.30
2022-10-13T19:01:51.968Z,8.52
2022-10-13T19:04:18.913Z,8.23
2022-10-13T19:06:46.596Z,16.42
2022-10-13T19:09:15.677Z,10.38
2022-10-13T19:11:42.624Z,13.82
2022-10-13T19:14:13.190Z,13.77
2022-10-13T19:16:42.491Z,9.60
2022-10-13T19:19:09.585Z,8.32
2022-10-13T19:21:38.016Z,11.57
2022-10-13T19:24:05.340Z,8.57
2022-10-13T19:26:34.993Z,11.80
2022-10-13T19:29:11.201Z,11.13
2022-10-13T19:31:40.365Z,10.68
2022-10-13T19:34:08.724Z,9.07
2022-10-13T19:36:44.697Z,9.50
2022-10-13T19:39:21.616Z,8.95
2022-10-13T19:41:49.911Z,11.27
2022-10-13T19:44:18.989Z,10.13
2022-10-13T19:46:47.795Z,14.32
2022-10-13T19:49:17.110Z,9.50
2022-10-13T19:51:49.228Z,12.18
2022-10-13T19:54:18.128Z,12.13
2022-10-13T19:56:47.719Z,12.40
2022-10-13T19:59:14.711Z,10.18
2022-10-13T20:01:41.689Z,14.27
2022-10-13T20:04:14.523Z,9.77
2022-10-13T20:06:44.290Z,13.52
2022-10-13T20:09:11.373Z,13.85
2022-10-13T20:11:38.614Z,10.70
2022-10-13T20:14:05.689Z,13.68
2022-10-13T20:16:32.830Z,11.15
2022-10-13T20:19:01.353Z,11.10
2022-10-13T20:21:28.552Z,12.40
2022-10-13T20:23:56.378Z,12.35
2022-10-13T20:26:24.178Z,9.57
2022-10-13T20:28:54.474Z,9.23
2022-10-13T20:31:22.520Z,10.25
2022-10-13T20:33:57.137Z,10.43
2022-10-13T20:36:28.674Z,9.35
2022-10-13T20:38:55.757Z,10.90
2022-10-13T20:41:28.430Z,12.25
2022-10-13T20:43:58.101Z,14.70
2022-10-13T20:46:25.815Z,13.18
2022-10-13T20:51:42.861Z,11.77
2022-10-13T20:54:11.390Z,12.93
2022-10-13T20:56:38.396Z,11.30
2022-10-13T20:59:07.765Z,10.95
2022-10-13T21:01:35.136Z,12.75
2022-10-13T21:04:02.077Z,17.90
2022-10-13T21:06:29.427Z,9.70
2022-10-13T21:08:56.913Z,10.98
2022-10-13T21:11:25.004Z,12.63
2022-10-13T21:13:52.944Z,10.32
2022-10-13T21:16:23.391Z,11.35
2022-10-13T21:18:51.848Z,11.60
2022-10-13T21:21:24.298Z,10.35
2022-10-13T21:23:53.327Z,10.93
2022-10-13T21:26:22.462Z,20.80
2022-10-13T21:28:50.255Z,14.48
2022-10-13T21:31:20.243Z,14.63
2022-10-13T21:33:47.990Z,13.60
2022-10-13T21:36:18.206Z,13.70
2022-10-13T21:38:46.125Z,12.07
2022-10-13T21:41:14.355Z,14.50
2022-10-13T21:43:41.511Z,13.05
2022-10-13T21:46:13.690Z,12.95
2022-10-13T21:48:44.510Z,14.60
2022-10-13T21:51:21.376Z,16.17
2022-10-13T21:53:53.630Z,13.07
2022-10-13T21:56:21.507Z,11.55
2022-10-13T21:58:49.212Z,17.25
2022-10-13T22:01:17.744Z,12.55
2022-10-13T22:03:47.139Z,12.68
2022-10-13T22:06:18.984Z,13.98
2022-10-13T22:08:49.531Z,13.32
2022-10-13T22:11:25.487Z,15.82
2022-10-13T22:13:52.503Z,18.35
2022-10-13T22:16:21.941Z,10.93
2022-10-13T22:18:52.647Z,16.98
2022-10-13T22:21:23.172Z,17.67
2022-10-13T22:23:50.335Z,13.98
2022-10-13T22:26:18.764Z,14.73
2022-10-13T22:28:48.279Z,15.27
2022-10-13T22:31:15.531Z,15.10
2022-10-13T22:33:43.417Z,13.05
2022-10-13T22:36:21.917Z,17.65
2022-10-13T22:38:50.773Z,14.80
2022-10-13T22:41:19.235Z,14.75
2022-10-13T22:43:50.831Z,15.73
2022-10-13T22:46:19.801Z,20.33
2022-10-13T22:48:47.466Z,16.25
2022-10-13T22:51:17.192Z,15.88
2022-10-13T22:53:44.950Z,16.25
2022-10-13T22:56:15.193Z,14.38
2022-10-13T22:58:42.205Z,15.13
2022-10-13T23:01:12.553Z,15.63
2022-10-13T23:03:40.627Z,17.30
2022-10-13T23:06:12.542Z,13.45
2022-10-13T23:08:39.888Z,16.88
2022-10-13T23:11:06.804Z,15.07
2022-10-13T23:13:33.996Z,18.55
2022-10-13T23:16:02.684Z,14.98
2022-10-13T23:18:34.567Z,13.18
2022-10-13T23:21:10.218Z,15.07
2022-10-13T23:23:37.640Z,16.02
2022-10-13T23:26:15.921Z,15.73
2022-10-13T23:28:43.784Z,18.70
2022-10-13T23:31:16.022Z,18.13
2022-10-13T23:33:43.416Z,16.45
2022-10-13T23:36:15.361Z,14.63
2022-10-13T23:38:42.431Z,17.50
2022-10-13T23:41:12.363Z,16.80
2022-10-13T23:43:41.089Z,16.17
2022-10-13T23:46:10.305Z,14.23
2022-10-13T23:48:38.145Z,19.40
2022-10-13T23:51:16.037Z,13.52
2022-10-13T23:53:43.750Z,15.90
2022-10-13T23:56:12.683Z,18.23
2022-10-13T23:58:41.488Z,13.25
